Home > Products > Valid Products > TAF

000
FTUS43 KUNR 250500
TAFGCC
TAF
KGCC 250520Z 2506/2606 36022G32KT P6SM SKC
     FM250900 33010KT P6SM SKC
     FM251300 VRB04KT P6SM SCT150=



000
FTUS43 KUNR 250500
TAFRAP
TAF
KRAP 250520Z 2506/2606 33017KT P6SM SCT100
     FM250700 34024G34KT P6SM SCT100
     FM251000 35015KT P6SM SKC
     FM251800 12010KT P6SM SCT100=



000
FTUS43 KUNR 250300 AAA
TAFGCC
TAF AMD
KGCC 250356Z 2504/2524 36015KT P6SM SCT200
     FM250800 VRB05KT P6SM SKC=



000
FTUS43 KUNR 250000 RRA
TAFRAP
TAF
KRAP 250000Z 2500/2524 VRB05KT P6SM SCT100
     FM250500 34021G32KT P6SM SCT100
     FM251200 35015KT P6SM SKC=



000
FTUS43 KUNR 250000 RRA
TAFGCC
TAF
KGCC 250000Z 2500/2524 25017KT P6SM SCT090
     FM250200 33015KT P6SM SCT200
     FM250800 VRB05KT P6SM SKC=



000
FTUS43 KUNR 242200 AAA
TAFGCC
TAF AMD
KGCC 242242Z 2423/2518 25017KT P6SM SCT090
     FM250000 33015KT P6SM SCT200
     FM250600 VRB05KT P6SM SKC=



000
FTUS43 KUNR 242100 AAA
TAFRAP
TAF AMD
KRAP 242105Z 2421/2518 VRB06KT P6SM SCT100 BKN200
     FM250200 30012KT P6SM SCT100
     FM250500 34021G32KT P6SM SCT100
     FM251200 35015KT P6SM SKC=



000
FTUS43 KUNR 241700 RRA
TAFGCC
TAF
KGCC 241751Z 2418/2518 26016KT P6SM FEW150
     FM242100 30017KT P6SM FEW100
     FM250100 34011KT P6SM SKC
     FM250600 VRB05KT P6SM SKC=



000
FTUS43 KUNR 241700 RRA
TAFRAP
TAF
KRAP 241751Z 2418/2518 15008KT P6SM SCT200
     FM242100 19010KT P6SM FEW100
     FM250100 30012KT P6SM SCT100
     FM250400 34020G30KT P6SM SCT100
     FM251200 35015KT P6SM SKC=



000
FTUS43 KUNR 241400 AAA
TAFRAP
TAF AMD
KRAP 241435Z 2415/2512 15009KT P6SM SCT250
     FM242100 23010KT P6SM FEW100
     FM250000 30011KT P6SM SCT100
     FM250300 34018KT P6SM SKC=



000
FTUS43 KUNR 241100
TAFRAP
TAF
KRAP 241128Z 2412/2512 15015KT P6SM SCT150
     FM242100 23010KT P6SM VCTS SCT100CB
     FM250000 30011KT P6SM VCTS SCT100CB
     FM250300 34018KT P6SM SKC=



000
FTUS43 KUNR 241100
TAFGCC
TAF
KGCC 241128Z 2412/2512 22016KT P6SM SCT150
     FM241600 25017KT P6SM FEW150
     FM242000 33017KT P6SM FEW100
     FM250000 36010KT P6SM SKC=



000
FTUS43 KUNR 240500 CCA
TAFGCC
TAF COR
KGCC 240544Z 2406/2506 15018KT P6SM SCT080
     FM241000 22014KT P6SM SCT200
     FM241800 31015KT P6SM SCT100=



000
FTUS43 KUNR 240500
TAFRAP
TAF
KRAP 240520Z 2406/2506 15013KT P6SM FEW100
     FM242000 24010KT P6SM SCT080
     FM242300 33015KT P6SM SCT100=



000
FTUS43 KUNR 240500
TAFGCC
TAF
KGCC 240520Z 2406/2506 13016KT P6SM SCT080
     FM241000 22014KT P6SM SCT200
     FM241800 31015KT P6SM SCT100=



000
FTUS43 KUNR 240000 CCA
TAFGCC
TAF COR
KGCC 240006Z 2400/2424 13016KT P6SM SCT080
      TEMPO 2400/2402 VRB20G40KT P6SM -TSRA BKN080CB
     FM241000 22014KT P6SM SCT200=



000
FTUS43 KUNR 232300
TAFRAP
TAF
KRAP 232320Z 2400/2424 15013KT P6SM FEW100=



000
FTUS43 KUNR 232300
TAFGCC
TAF
KGCC 232320Z 2400/2424 13016KT P6SM SCT080
     FM241000 22014KT P6SM SCT200=



000
FTUS43 KUNR 232100 AAA
TAFRAP
TAF AMD
KRAP 232107Z 2321/2418 12015KT P6SM SKC
     FM232300 13012KT P6SM SCT080
     FM240800 15007KT P6SM SCT150=



000
FTUS43 KUNR 231700
TAFGCC
TAF
KGCC 231720Z 2318/2418 16018KT P6SM SKC
     FM232300 16015KT P6SM SCT080
     FM240400 16012KT P6SM SCT150
     FM241000 20011KT P6SM SCT200=



000
FTUS43 KUNR 231700
TAFRAP
TAF
KRAP 231720Z 2318/2418 16017KT P6SM SKC
     FM232300 13012KT P6SM SCT080
     FM240800 15007KT P6SM SCT150=



000
FTUS43 KUNR 231500 AAB
TAFGCC
TAF AMD
KGCC 231519Z 2315/2412 16018KT P6SM SKC
      TEMPO 2315/2316 BKN020
     FM232300 16017KT P6SM VCTS SCT080CB
     FM240400 16019KT P6SM SCT150
     FM241000 20011KT P6SM SKC=



000
FTUS43 KUNR 231500 AAA
TAFRAP
TAF AMD
KRAP 231516Z 2315/2412 18012KT P6SM SKC
     FM232200 13011KT P6SM SCT080
     FM240000 12009KT P6SM BKN080
      TEMPO 2400/2404 3SM TSRA OVC070CB
     FM240800 16006KT P6SM SCT150=



000
FTUS43 KUNR 231200 AAA
TAFGCC
TAF AMD
KGCC 231257Z 2313/2412 16018KT P6SM SKC
     FM232200 16017KT P6SM VCTS SCT080CB
     FM240400 16019KT P6SM SCT150
     FM241000 20011KT P6SM SKC=



000
FTUS43 KUNR 231100
TAFRAP
TAF
KRAP 231120Z 2312/2412 18008KT P6SM SCT080
     FM231500 15012G20KT P6SM SKC
     FM232200 13011KT P6SM VCTS SCT080CB
     FM240000 12009KT P6SM VCTS BKN080CB
      TEMPO 2400/2404 3SM TSRA OVC070CB
     FM240800 16006KT P6SM SCT150=



000
FTUS43 KUNR 231100
TAFGCC
TAF
KGCC 231120Z 2312/2412 15011KT P6SM SKC
     FM232200 16014KT P6SM VCTS SCT080CB
     FM240400 16019KT P6SM SCT150
     FM241000 20011KT P6SM SKC=



000
FTUS43 KUNR 230900 AAA
TAFRAP
TAF AMD
KRAP 230905Z 2309/2406 23011KT P6SM VCTS BKN100CB
     FM231100 16008KT P6SM SKC
     FM231500 15010G20KT P6SM SKC=



000
FTUS43 KUNR 230500
TAFRAP
TAF
KRAP 230533Z 2306/2406 15011KT P6SM BKN100
      TEMPO 2307/2309 VRB25KT 4SM TSRA BKN060CB
     FM230900 16008KT P6SM SKC
     FM231500 15010G20KT P6SM SKC=



000
FTUS43 KUNR 230500
TAFGCC
TAF
KGCC 230533Z 2306/2406 03011KT P6SM SKC
     FM230700 VRB06KT P6SM SKC
     FM231000 16009KT P6SM SKC
     FM231800 15010G20KT P6SM SKC=



000
FTUS43 KUNR 230500 AAA
TAFGCC
TAF AMD
KGCC 230513Z 2305/2324 03017KT P6SM SKC
     FM230700 VRB06KT P6SM SKC
     FM231000 16009KT P6SM SKC
     FM231800 15010G20KT P6SM SKC=



000
FTUS43 KUNR 230300 AAC
TAFRAP
TAF AMD
KRAP 230321Z 2303/2324 11011KT P6SM VCTS SCT100CB OVC200
      TEMPO 2303/2305 4SM TSRA BKN050CB
     FM230700 17007KT P6SM BKN250
     FM231900 14010G20KT P6SM SCT250=



000
FTUS43 KUNR 230200 AAB
TAFRAP
TAF AMD
KRAP 230236Z 2303/2324 14011KT P6SM VCTS SCT100CB OVC200
     FM230400 17007KT P6SM BKN250
     FM231900 14010G20KT P6SM SCT250=



000
FTUS43 KUNR 230000 AAA
TAFRAP
TAF AMD
KRAP 230003Z 2300/2324 16011KT P6SM BKN100 OVC200
      TEMPO 2300/2302 TSRA BKN070CB
     FM230300 17007KT P6SM SKC
     FM231900 14010G20KT P6SM SCT250=



000
FTUS43 KUNR 222300
TAFRAP
TAF
KRAP 222320Z 2300/2324 13012KT P6SM BKN250
     FM230100 11007KT P6SM BKN100 OVC250
      TEMPO 2301/2302 TSRA BKN070CB
     FM230300 17007KT P6SM SKC
     FM231900 14010G20KT P6SM SCT250=



000
FTUS43 KUNR 222300
TAFGCC
TAF
KGCC 222320Z 2300/2324 02011KT P6SM SKC
     FM230200 16009KT P6SM SKC
     FM231800 15010G20KT P6SM SKC=



000
FTUS43 KUNR 222200 AAB
TAFGCC
TAF AMD
KGCC 222247Z 2223/2318 02011G21KT P6SM SCT100
     FM230400 16009KT P6SM SKC=



000
FTUS43 KUNR 222100 AAA
TAFRAP
TAF AMD
KRAP 222145Z 2222/2318 12012KT P6SM SCT150
     FM230000 11009KT P6SM SCT080=



000
FTUS43 KUNR 222100 AAA
TAFGCC
TAF AMD
KGCC 222135Z 2222/2318 17012KT P6SM FEW090
     FM222200 17012KT P6SM VCTS SCT090CB
     FM222300 16012KT P6SM SCT090
     FM230400 16009KT P6SM SKC=



000
FTUS43 KUNR 221700
TAFGCC
TAF
KGCC 221720Z 2218/2318 17012KT P6SM FEW100
     FM222100 15010KT P6SM SCT090
     FM230400 16009KT P6SM SKC=



000
FTUS43 KUNR 221700
TAFRAP
TAF
KRAP 221720Z 2218/2318 13008KT P6SM SKC
     FM230000 11009KT P6SM SCT080=



000
FTUS43 KUNR 221100
TAFRAP
TAF
KRAP 221121Z 2212/2312 VRB05KT P6SM SCT090
     FM221600 14007KT P6SM SCT100=



000
FTUS43 KUNR 221100
TAFGCC
TAF
KGCC 221121Z 2212/2312 20010KT P6SM SCT150
     FM222100 15010KT P6SM SCT080=



000
FTUS43 KUNR 220900 AAA
TAFRAP
TAF AMD
KRAP 220939Z 2210/2306 34010KT P6SM SCT090
      TEMPO 2210/2212 6SM -TSRA BKN080CB
     FM221500 04010KT P6SM SCT100=



    US Dept of Commerce
    National Oceanic and Atmospheric Administration
    National Weather Service
    1325 East West Highway
    Silver Spring, MD 20910
    Page Author: NWS Internet Services Team
Disclaimer
Information Quality
Credits
Glossary
Privacy Policy
Freedom of Information Act (FOIA)
About Us
Career Opportunities